sensor_id;sensor_type;location;lat;lon;timestamp;temperature;humidity
30381;DHT22;17169;50.966;11.038;2022-12-18T00:01:18;-6.90;99.90
30381;DHT22;17169;50.966;11.038;2022-12-18T00:04:22;-6.90;99.90
30381;DHT22;17169;50.966;11.038;2022-12-18T00:07:25;-6.90;99.90
30381;DHT22;17169;50.966;11.038;2022-12-18T00:10:28;-6.90;99.90
30381;DHT22;17169;50.966;11.038;2022-12-18T00:13:31;-6.90;99.90
30381;DHT22;17169;50.966;11.038;2022-12-18T00:16:34;-7.00;99.90
30381;DHT22;17169;50.966;11.038;2022-12-18T00:19:37;-7.00;99.90
30381;DHT22;17169;50.966;11.038;2022-12-18T00:22:40;-7.00;99.90
30381;DHT22;17169;50.966;11.038;2022-12-18T00:25:42;-7.00;99.90
30381;DHT22;17169;50.966;11.038;2022-12-18T00:28:46;-7.00;99.90
30381;DHT22;17169;50.966;11.038;2022-12-18T00:31:49;-7.00;99.90
30381;DHT22;17169;50.966;11.038;2022-12-18T00:34:51;-7.00;99.90
30381;DHT22;17169;50.966;11.038;2022-12-18T00:37:53;-7.10;99.90
30381;DHT22;17169;50.966;11.038;2022-12-18T00:40:56;-7.10;99.90
30381;DHT22;17169;50.966;11.038;2022-12-18T00:44:00;-7.10;99.90
30381;DHT22;17169;50.966;11.038;2022-12-18T00:47:01;-7.10;99.90
30381;DHT22;17169;50.966;11.038;2022-12-18T00:50:04;-7.10;99.90
30381;DHT22;17169;50.966;11.038;2022-12-18T00:53:07;-7.20;99.90
30381;DHT22;17169;50.966;11.038;2022-12-18T00:56:09;-7.20;99.90
30381;DHT22;17169;50.966;11.038;2022-12-18T00:59:13;-7.30;99.90
30381;DHT22;17169;50.966;11.038;2022-12-18T01:02:15;-7.30;99.90
30381;DHT22;17169;50.966;11.038;2022-12-18T01:05:18;-7.30;99.90
30381;DHT22;17169;50.966;11.038;2022-12-18T01:08:20;-7.30;99.90
30381;DHT22;17169;50.966;11.038;2022-12-18T01:11:23;-7.40;99.90
30381;DHT22;17169;50.966;11.038;2022-12-18T01:14:27;-7.40;99.90
30381;DHT22;17169;50.966;11.038;2022-12-18T01:17:29;-7.40;99.90
30381;DHT22;17169;50.966;11.038;2022-12-18T01:20:32;-7.40;99.90
30381;DHT22;17169;50.966;11.038;2022-12-18T01:23:35;-7.40;99.90
30381;DHT22;17169;50.966;11.038;2022-12-18T01:26:37;-7.50;99.90
30381;DHT22;17169;50.966;11.038;2022-12-18T01:29:41;-7.50;99.90
30381;DHT22;17169;50.966;11.038;2022-12-18T01:32:44;-7.50;99.90
30381;DHT22;17169;50.966;11.038;2022-12-18T01:35:46;-7.60;99.90
30381;DHT22;17169;50.966;11.038;2022-12-18T01:38:49;-7.50;99.90
30381;DHT22;17169;50.966;11.038;2022-12-18T01:41:51;-7.50;99.90
30381;DHT22;17169;50.966;11.038;2022-12-18T01:45:22;-7.50;99.90
30381;DHT22;17169;50.966;11.038;2022-12-18T01:48:25;-7.50;99.90
30381;DHT22;17169;50.966;11.038;2022-12-18T01:51:28;-7.50;99.90
30381;DHT22;17169;50.966;11.038;2022-12-18T01:54:31;-7.50;99.90
30381;DHT22;17169;50.966;11.038;2022-12-18T01:57:34;-7.40;99.90
30381;DHT22;17169;50.966;11.038;2022-12-18T02:00:39;-7.40;99.90
30381;DHT22;17169;50.966;11.038;2022-12-18T02:03:42;-7.50;99.90
30381;DHT22;17169;50.966;11.038;2022-12-18T02:06:45;-7.50;99.90
30381;DHT22;17169;50.966;11.038;2022-12-18T02:09:54;-7.50;99.90
30381;DHT22;17169;50.966;11.038;2022-12-18T02:13:05;-7.50;99.90
30381;DHT22;17169;50.966;11.038;2022-12-18T02:16:19;-7.60;99.90
30381;DHT22;17169;50.966;11.038;2022-12-18T02:19:43;-7.70;99.90
30381;DHT22;17169;50.966;11.038;2022-12-18T02:22:58;-7.60;99.90
30381;DHT22;17169;50.966;11.038;2022-12-18T02:26:12;-7.60;99.90
30381;DHT22;17169;50.966;11.038;2022-12-18T02:29:20;-7.70;99.90
30381;DHT22;17169;50.966;11.038;2022-12-18T02:32:26;-7.70;99.90
30381;DHT22;17169;50.966;11.038;2022-12-18T02:35:30;-7.70;99.90
30381;DHT22;17169;50.966;11.038;2022-12-18T02:38:33;-7.70;99.90
30381;DHT22;17169;50.966;11.038;2022-12-18T02:41:38;-7.60;99.90
30381;DHT22;17169;50.966;11.038;2022-12-18T02:44:43;-7.70;99.90
30381;DHT22;17169;50.966;11.038;2022-12-18T02:47:48;-7.60;99.90
30381;DHT22;17169;50.966;11.038;2022-12-18T02:50:58;-7.60;99.90
30381;DHT22;17169;50.966;11.038;2022-12-18T02:54:05;-7.60;99.90
30381;DHT22;17169;50.966;11.038;2022-12-18T02:57:17;-7.70;99.90
30381;DHT22;17169;50.966;11.038;2022-12-18T03:00:22;-7.70;99.90
30381;DHT22;17169;50.966;11.038;2022-12-18T03:03:30;-7.70;99.90
30381;DHT22;17169;50.966;11.038;2022-12-18T03:06:37;-7.70;99.90
30381;DHT22;17169;50.966;11.038;2022-12-18T03:09:44;-7.70;99.90
30381;DHT22;17169;50.966;11.038;2022-12-18T03:12:52;-7.70;99.90
30381;DHT22;17169;50.966;11.038;2022-12-18T03:15:57;-7.70;99.90
30381;DHT22;17169;50.966;11.038;2022-12-18T03:19:01;-7.70;99.90
30381;DHT22;17169;50.966;11.038;2022-12-18T03:22:07;-7.80;99.90
30381;DHT22;17169;50.966;11.038;2022-12-18T03:25:11;-7.80;99.90
30381;DHT22;17169;50.966;11.038;2022-12-18T03:28:20;-7.80;99.90
30381;DHT22;17169;50.966;11.038;2022-12-18T03:31:23;-7.90;99.90
30381;DHT22;17169;50.966;11.038;2022-12-18T03:34:31;-8.00;99.90
30381;DHT22;17169;50.966;11.038;2022-12-18T03:37:34;-8.10;99.90
30381;DHT22;17169;50.966;11.038;2022-12-18T03:40:44;-8.20;99.90
30381;DHT22;17169;50.966;11.038;2022-12-18T03:43:52;-8.30;99.90
30381;DHT22;17169;50.966;11.038;2022-12-18T03:47:05;-8.30;99.90
30381;DHT22;17169;50.966;11.038;2022-12-18T03:50:13;-8.20;99.90
30381;DHT22;17169;50.966;11.038;2022-12-18T03:53:24;-8.20;99.90
30381;DHT22;17169;50.966;11.038;2022-12-18T03:56:32;-8.20;99.90
30381;DHT22;17169;50.966;11.038;2022-12-18T03:59:38;-8.20;99.90
30381;DHT22;17169;50.966;11.038;2022-12-18T04:02:43;-8.20;99.90
30381;DHT22;17169;50.966;11.038;2022-12-18T04:05:48;-8.10;99.90
30381;DHT22;17169;50.966;11.038;2022-12-18T04:08:52;-8.10;99.90
30381;DHT22;17169;50.966;11.038;2022-12-18T04:11:54;-8.10;99.90
30381;DHT22;17169;50.966;11.038;2022-12-18T04:14:58;-8.20;99.90
30381;DHT22;17169;50.966;11.038;2022-12-18T04:18:00;-8.20;99.90
30381;DHT22;17169;50.966;11.038;2022-12-18T04:21:03;-8.20;99.90
30381;DHT22;17169;50.966;11.038;2022-12-18T04:24:06;-8.20;99.90
30381;DHT22;17169;50.966;11.038;2022-12-18T04:27:09;-8.20;99.90
30381;DHT22;17169;50.966;11.038;2022-12-18T04:30:13;-8.30;99.90
30381;DHT22;17169;50.966;11.038;2022-12-18T04:33:15;-8.20;99.90
30381;DHT22;17169;50.966;11.038;2022-12-18T04:36:21;-8.20;99.90
30381;DHT22;17169;50.966;11.038;2022-12-18T04:39:23;-8.20;99.90
30381;DHT22;17169;50.966;11.038;2022-12-18T04:42:26;-8.20;99.90
30381;DHT22;17169;50.966;11.038;2022-12-18T04:45:29;-8.10;99.90
30381;DHT22;17169;50.966;11.038;2022-12-18T04:48:33;-8.20;99.90
30381;DHT22;17169;50.966;11.038;2022-12-18T04:51:35;-8.30;99.90
30381;DHT22;17169;50.966;11.038;2022-12-18T04:54:38;-8.30;99.90
30381;DHT22;17169;50.966;11.038;2022-12-18T04:57:40;-8.30;99.90
30381;DHT22;17169;50.966;11.038;2022-12-18T05:00:44;-8.30;99.90
30381;DHT22;17169;50.966;11.038;2022-12-18T05:03:46;-8.40;99.90
30381;DHT22;17169;50.966;11.038;2022-12-18T05:06:48;-8.40;99.90
30381;DHT22;17169;50.966;11.038;2022-12-18T05:09:51;-8.40;99.90
30381;DHT22;17169;50.966;11.038;2022-12-18T05:12:53;-8.40;99.90
30381;DHT22;17169;50.966;11.038;2022-12-18T05:16:04;-8.40;99.90
30381;DHT22;17169;50.966;11.038;2022-12-18T05:19:06;-8.40;99.90
30381;DHT22;17169;50.966;11.038;2022-12-18T05:22:09;-8.50;99.90
30381;DHT22;17169;50.966;11.038;2022-12-18T05:25:11;-8.50;99.90
30381;DHT22;17169;50.966;11.038;2022-12-18T05:28:14;-8.50;99.90
30381;DHT22;17169;50.966;11.038;2022-12-18T05:31:17;-8.60;99.90
30381;DHT22;17169;50.966;11.038;2022-12-18T05:34:20;-8.60;99.90
30381;DHT22;17169;50.966;11.038;2022-12-18T05:37:22;-8.60;99.90
30381;DHT22;17169;50.966;11.038;2022-12-18T05:40:25;-8.60;99.90
30381;DHT22;17169;50.966;11.038;2022-12-18T05:43:28;-8.60;99.90
30381;DHT22;17169;50.966;11.038;2022-12-18T05:46:31;-8.70;99.90
30381;DHT22;17169;50.966;11.038;2022-12-18T05:49:34;-8.70;99.90
30381;DHT22;17169;50.966;11.038;2022-12-18T05:52:36;-8.80;99.90
30381;DHT22;17169;50.966;11.038;2022-12-18T05:55:40;-8.90;99.90
30381;DHT22;17169;50.966;11.038;2022-12-18T05:58:43;-8.90;99.90
30381;DHT22;17169;50.966;11.038;2022-12-18T06:01:46;-9.00;99.90
30381;DHT22;17169;50.966;11.038;2022-12-18T06:04:49;-9.10;99.90
30381;DHT22;17169;50.966;11.038;2022-12-18T06:07:51;-9.10;99.90
30381;DHT22;17169;50.966;11.038;2022-12-18T06:10:54;-9.30;99.90
30381;DHT22;17169;50.966;11.038;2022-12-18T06:13:56;-9.30;99.90
30381;DHT22;17169;50.966;11.038;2022-12-18T06:17:00;-9.20;99.90
30381;DHT22;17169;50.966;11.038;2022-12-18T06:20:04;-9.20;99.90
30381;DHT22;17169;50.966;11.038;2022-12-18T06:23:08;-9.30;99.90
30381;DHT22;17169;50.966;11.038;2022-12-18T06:26:12;-9.40;99.90
30381;DHT22;17169;50.966;11.038;2022-12-18T06:29:14;-9.30;99.90
30381;DHT22;17169;50.966;11.038;2022-12-18T06:32:18;-9.30;99.90
30381;DHT22;17169;50.966;11.038;2022-12-18T06:35:20;-9.30;99.90
30381;DHT22;17169;50.966;11.038;2022-12-18T06:38:23;-9.20;99.90
30381;DHT22;17169;50.966;11.038;2022-12-18T06:41:25;-9.20;99.90
30381;DHT22;17169;50.966;11.038;2022-12-18T06:44:27;-9.10;99.90
30381;DHT22;17169;50.966;11.038;2022-12-18T06:47:31;-9.20;99.90
30381;DHT22;17169;50.966;11.038;2022-12-18T06:50:34;-9.20;99.90
30381;DHT22;17169;50.966;11.038;2022-12-18T06:53:36;-9.10;99.90
30381;DHT22;17169;50.966;11.038;2022-12-18T06:56:38;-9.10;99.90
30381;DHT22;17169;50.966;11.038;2022-12-18T06:59:41;-9.10;99.90
30381;DHT22;17169;50.966;11.038;2022-12-18T07:02:44;-9.10;99.90
30381;DHT22;17169;50.966;11.038;2022-12-18T07:05:47;-9.10;99.90
30381;DHT22;17169;50.966;11.038;2022-12-18T07:08:50;-9.10;99.90
30381;DHT22;17169;50.966;11.038;2022-12-18T07:11:52;-9.10;99.90
30381;DHT22;17169;50.966;11.038;2022-12-18T07:14:55;-9.00;99.90
30381;DHT22;17169;50.966;11.038;2022-12-18T07:17:58;-9.10;99.90
30381;DHT22;17169;50.966;11.038;2022-12-18T07:21:03;-9.10;99.90
30381;DHT22;17169;50.966;11.038;2022-12-18T07:24:07;-9.10;99.90
30381;DHT22;17169;50.966;11.038;2022-12-18T07:27:09;-9.10;99.90
30381;DHT22;17169;50.966;11.038;2022-12-18T07:30:12;-9.10;99.90
30381;DHT22;17169;50.966;11.038;2022-12-18T07:33:16;-9.20;99.90
30381;DHT22;17169;50.966;11.038;2022-12-18T07:36:19;-9.20;99.90
30381;DHT22;17169;50.966;11.038;2022-12-18T07:39:24;-9.10;99.90
30381;DHT22;17169;50.966;11.038;2022-12-18T07:42:26;-9.20;99.90
30381;DHT22;17169;50.966;11.038;2022-12-18T07:45:35;-9.20;99.90
30381;DHT22;17169;50.966;11.038;2022-12-18T07:48:39;-9.10;99.90
30381;DHT22;17169;50.966;11.038;2022-12-18T07:51:42;-9.10;99.90
30381;DHT22;17169;50.966;11.038;2022-12-18T07:54:47;-9.10;99.90
30381;DHT22;17169;50.966;11.038;2022-12-18T07:57:50;-9.10;99.90
30381;DHT22;17169;50.966;11.038;2022-12-18T08:00:52;-9.10;99.90
30381;DHT22;17169;50.966;11.038;2022-12-18T08:03:59;-9.10;99.90
30381;DHT22;17169;50.966;11.038;2022-12-18T08:07:02;-9.20;99.90
30381;DHT22;17169;50.966;11.038;2022-12-18T08:10:05;-9.10;99.90
30381;DHT22;17169;50.966;11.038;2022-12-18T08:13:07;-9.10;99.90
30381;DHT22;17169;50.966;11.038;2022-12-18T08:16:10;-9.20;99.90
30381;DHT22;17169;50.966;11.038;2022-12-18T08:19:14;-9.10;99.90
30381;DHT22;17169;50.966;11.038;2022-12-18T08:22:16;-9.20;99.90
30381;DHT22;17169;50.966;11.038;2022-12-18T08:25:19;-9.10;99.90
30381;DHT22;17169;50.966;11.038;2022-12-18T08:28:21;-9.10;99.90
30381;DHT22;17169;50.966;11.038;2022-12-18T08:31:24;-9.00;99.90
30381;DHT22;17169;50.966;11.038;2022-12-18T08:34:29;-8.90;99.90
30381;DHT22;17169;50.966;11.038;2022-12-18T08:37:31;-8.80;99.90
30381;DHT22;17169;50.966;11.038;2022-12-18T08:40:34;-8.70;99.90
30381;DHT22;17169;50.966;11.038;2022-12-18T08:43:36;-8.70;99.90
30381;DHT22;17169;50.966;11.038;2022-12-18T08:46:56;-8.70;99.90
30381;DHT22;17169;50.966;11.038;2022-12-18T08:50:00;-8.60;99.90
30381;DHT22;17169;50.966;11.038;2022-12-18T08:53:03;-8.60;99.90
30381;DHT22;17169;50.966;11.038;2022-12-18T08:56:06;-8.50;99.90
30381;DHT22;17169;50.966;11.038;2022-12-18T08:59:08;-8.60;99.90
30381;DHT22;17169;50.966;11.038;2022-12-18T09:02:11;-8.50;99.90
30381;DHT22;17169;50.966;11.038;2022-12-18T09:05:15;-8.50;99.90
30381;DHT22;17169;50.966;11.038;2022-12-18T09:08:17;-8.40;99.90
30381;DHT22;17169;50.966;11.038;2022-12-18T09:11:21;-8.40;99.90
30381;DHT22;17169;50.966;11.038;2022-12-18T09:14:24;-8.30;99.90
30381;DHT22;17169;50.966;11.038;2022-12-18T09:17:26;-8.30;99.90
30381;DHT22;17169;50.966;11.038;2022-12-18T09:20:30;-8.20;99.90
30381;DHT22;17169;50.966;11.038;2022-12-18T09:23:33;-8.20;99.90
30381;DHT22;17169;50.966;11.038;2022-12-18T09:26:35;-8.10;99.90
30381;DHT22;17169;50.966;11.038;2022-12-18T09:29:38;-8.00;99.90
30381;DHT22;17169;50.966;11.038;2022-12-18T09:32:40;-8.00;99.90
30381;DHT22;17169;50.966;11.038;2022-12-18T09:35:45;-7.90;99.90
30381;DHT22;17169;50.966;11.038;2022-12-18T09:38:48;-7.90;99.90
30381;DHT22;17169;50.966;11.038;2022-12-18T09:41:51;-7.80;99.90
30381;DHT22;17169;50.966;11.038;2022-12-18T09:44:55;-7.70;99.90
30381;DHT22;17169;50.966;11.038;2022-12-18T09:47:58;-7.60;99.90
30381;DHT22;17169;50.966;11.038;2022-12-18T09:51:11;-7.60;99.90
30381;DHT22;17169;50.966;11.038;2022-12-18T09:54:20;-7.50;99.90
30381;DHT22;17169;50.966;11.038;2022-12-18T09:57:24;-7.50;99.90
30381;DHT22;17169;50.966;11.038;2022-12-18T10:00:27;-7.50;99.90
30381;DHT22;17169;50.966;11.038;2022-12-18T10:03:30;-7.40;99.90
30381;DHT22;17169;50.966;11.038;2022-12-18T10:06:39;-7.30;99.90
30381;DHT22;17169;50.966;11.038;2022-12-18T10:09:50;-7.20;99.90
30381;DHT22;17169;50.966;11.038;2022-12-18T10:13:01;-7.20;99.90
30381;DHT22;17169;50.966;11.038;2022-12-18T10:16:11;-7.10;99.90
30381;DHT22;17169;50.966;11.038;2022-12-18T10:19:23;-6.90;99.90
30381;DHT22;17169;50.966;11.038;2022-12-18T10:22:43;-6.80;99.90
30381;DHT22;17169;50.966;11.038;2022-12-18T10:25:54;-6.70;99.90
30381;DHT22;17169;50.966;11.038;2022-12-18T10:28:58;-6.50;99.90
30381;DHT22;17169;50.966;11.038;2022-12-18T10:32:02;-6.40;99.90
30381;DHT22;17169;50.966;11.038;2022-12-18T10:35:07;-6.30;99.90
30381;DHT22;17169;50.966;11.038;2022-12-18T10:38:27;-6.20;99.90
30381;DHT22;17169;50.966;11.038;2022-12-18T10:41:30;-6.10;99.90
30381;DHT22;17169;50.966;11.038;2022-12-18T10:44:33;-6.00;99.90
30381;DHT22;17169;50.966;11.038;2022-12-18T10:47:35;-5.90;99.90
30381;DHT22;17169;50.966;11.038;2022-12-18T10:50:38;-5.90;99.90
30381;DHT22;17169;50.966;11.038;2022-12-18T10:53:42;-5.80;99.90
30381;DHT22;17169;50.966;11.038;2022-12-18T10:57:14;-5.80;99.90
30381;DHT22;17169;50.966;11.038;2022-12-18T11:00:23;-5.70;99.90
30381;DHT22;17169;50.966;11.038;2022-12-18T11:03:31;-5.70;99.90
30381;DHT22;17169;50.966;11.038;2022-12-18T11:06:53;-5.70;99.90
30381;DHT22;17169;50.966;11.038;2022-12-18T11:10:04;-5.70;99.90
30381;DHT22;17169;50.966;11.038;2022-12-18T11:13:11;-5.70;99.90
30381;DHT22;17169;50.966;11.038;2022-12-18T11:16:18;-5.60;99.90
30381;DHT22;17169;50.966;11.038;2022-12-18T11:19:26;-5.70;99.90
30381;DHT22;17169;50.966;11.038;2022-12-18T11:22:32;-5.70;99.90
30381;DHT22;17169;50.966;11.038;2022-12-18T11:25:37;-5.70;99.90
30381;DHT22;17169;50.966;11.038;2022-12-18T11:28:41;-5.80;99.90
30381;DHT22;17169;50.966;11.038;2022-12-18T11:31:45;-5.80;99.90
30381;DHT22;17169;50.966;11.038;2022-12-18T11:34:51;-5.80;99.90
30381;DHT22;17169;50.966;11.038;2022-12-18T11:37:59;-5.80;99.90
30381;DHT22;17169;50.966;11.038;2022-12-18T11:41:14;-5.80;99.90
30381;DHT22;17169;50.966;11.038;2022-12-18T11:44:25;-5.80;99.90
30381;DHT22;17169;50.966;11.038;2022-12-18T11:47:35;-5.70;99.90
30381;DHT22;17169;50.966;11.038;2022-12-18T11:50:46;-5.70;99.90
30381;DHT22;17169;50.966;11.038;2022-12-18T11:53:51;-5.70;99.90
30381;DHT22;17169;50.966;11.038;2022-12-18T11:56:58;-5.60;99.90
30381;DHT22;17169;50.966;11.038;2022-12-18T12:00:12;-5.60;99.90
30381;DHT22;17169;50.966;11.038;2022-12-18T12:03:26;-5.50;99.90
30381;DHT22;17169;50.966;11.038;2022-12-18T12:06:37;-5.50;99.90
30381;DHT22;17169;50.966;11.038;2022-12-18T12:09:48;-5.50;99.90
30381;DHT22;17169;50.966;11.038;2022-12-18T12:13:04;-5.40;99.90
30381;DHT22;17169;50.966;11.038;2022-12-18T12:16:18;-5.40;99.90
30381;DHT22;17169;50.966;11.038;2022-12-18T12:19:37;-5.30;99.90
30381;DHT22;17169;50.966;11.038;2022-12-18T12:22:49;-5.30;99.90
30381;DHT22;17169;50.966;11.038;2022-12-18T12:26:01;-5.20;99.90
30381;DHT22;17169;50.966;11.038;2022-12-18T12:29:18;-5.10;99.90
30381;DHT22;17169;50.966;11.038;2022-12-18T12:32:45;-5.00;99.90
30381;DHT22;17169;50.966;11.038;2022-12-18T12:35:55;-4.90;99.90
30381;DHT22;17169;50.966;11.038;2022-12-18T12:50:15;-4.80;99.90
30381;DHT22;17169;50.966;11.038;2022-12-18T12:53:25;-4.70;99.90
30381;DHT22;17169;50.966;11.038;2022-12-18T12:56:35;-4.70;99.90
30381;DHT22;17169;50.966;11.038;2022-12-18T12:59:47;-4.60;99.90
30381;DHT22;17169;50.966;11.038;2022-12-18T13:02:55;-4.60;99.90
30381;DHT22;17169;50.966;11.038;2022-12-18T13:06:07;-4.50;99.90
30381;DHT22;17169;50.966;11.038;2022-12-18T13:09:11;-4.50;99.90
30381;DHT22;17169;50.966;11.038;2022-12-18T13:12:16;-4.40;99.90
30381;DHT22;17169;50.966;11.038;2022-12-18T13:15:40;-4.30;99.90
30381;DHT22;17169;50.966;11.038;2022-12-18T13:18:48;-4.30;99.90
30381;DHT22;17169;50.966;11.038;2022-12-18T13:21:56;-4.20;99.90
30381;DHT22;17169;50.966;11.038;2022-12-18T13:24:59;-4.20;99.90
30381;DHT22;17169;50.966;11.038;2022-12-18T13:28:08;-4.20;99.90
30381;DHT22;17169;50.966;11.038;2022-12-18T13:31:12;-4.20;99.90
30381;DHT22;17169;50.966;11.038;2022-12-18T13:34:16;-4.30;99.90
30381;DHT22;17169;50.966;11.038;2022-12-18T13:37:51;-4.30;99.90
30381;DHT22;17169;50.966;11.038;2022-12-18T13:40:56;-4.40;99.90
30381;DHT22;17169;50.966;11.038;2022-12-18T13:44:11;-4.40;99.90
30381;DHT22;17169;50.966;11.038;2022-12-18T13:47:24;-4.50;99.90
30381;DHT22;17169;50.966;11.038;2022-12-18T13:50:27;-4.50;99.90
30381;DHT22;17169;50.966;11.038;2022-12-18T13:53:34;-4.60;99.90
30381;DHT22;17169;50.966;11.038;2022-12-18T13:56:43;-4.70;99.90
30381;DHT22;17169;50.966;11.038;2022-12-18T13:59:45;-4.70;99.90
30381;DHT22;17169;50.966;11.038;2022-12-18T14:02:49;-4.70;99.90
30381;DHT22;17169;50.966;11.038;2022-12-18T14:06:01;-4.80;99.90
30381;DHT22;17169;50.966;11.038;2022-12-18T14:09:05;-4.80;99.90
30381;DHT22;17169;50.966;11.038;2022-12-18T14:12:15;-4.90;99.90
30381;DHT22;17169;50.966;11.038;2022-12-18T14:15:40;-4.90;99.90
30381;DHT22;17169;50.966;11.038;2022-12-18T14:18:46;-4.90;99.90
30381;DHT22;17169;50.966;11.038;2022-12-18T14:21:50;-4.90;99.90
30381;DHT22;17169;50.966;11.038;2022-12-18T14:25:14;-4.90;99.90
30381;DHT22;17169;50.966;11.038;2022-12-18T14:28:17;-4.90;99.90
30381;DHT22;17169;50.966;11.038;2022-12-18T14:31:22;-5.00;99.90
30381;DHT22;17169;50.966;11.038;2022-12-18T14:34:26;-5.00;99.90
30381;DHT22;17169;50.966;11.038;2022-12-18T14:37:28;-5.00;99.90
30381;DHT22;17169;50.966;11.038;2022-12-18T14:40:33;-5.10;99.90
30381;DHT22;17169;50.966;11.038;2022-12-18T14:43:37;-5.10;99.90
30381;DHT22;17169;50.966;11.038;2022-12-18T14:46:41;-5.20;99.90
30381;DHT22;17169;50.966;11.038;2022-12-18T14:49:44;-5.20;99.90
30381;DHT22;17169;50.966;11.038;2022-12-18T14:52:48;-5.20;99.90
30381;DHT22;17169;50.966;11.038;2022-12-18T14:55:52;-5.20;99.90
30381;DHT22;17169;50.966;11.038;2022-12-18T14:58:56;-5.30;99.90
30381;DHT22;17169;50.966;11.038;2022-12-18T15:02:02;-5.40;99.90
30381;DHT22;17169;50.966;11.038;2022-12-18T15:05:17;-5.40;99.90
30381;DHT22;17169;50.966;11.038;2022-12-18T15:08:34;-5.40;99.90
30381;DHT22;17169;50.966;11.038;2022-12-18T15:11:45;-5.40;99.90
30381;DHT22;17169;50.966;11.038;2022-12-18T15:14:48;-5.40;99.90
30381;DHT22;17169;50.966;11.038;2022-12-18T15:17:57;-5.50;99.90
30381;DHT22;17169;50.966;11.038;2022-12-18T15:21:08;-5.50;99.90
30381;DHT22;17169;50.966;11.038;2022-12-18T15:24:17;-5.40;99.90
30381;DHT22;17169;50.966;11.038;2022-12-18T15:27:29;-5.50;99.90
30381;DHT22;17169;50.966;11.038;2022-12-18T15:30:32;-5.50;99.90
30381;DHT22;17169;50.966;11.038;2022-12-18T15:33:36;-5.50;99.90
30381;DHT22;17169;50.966;11.038;2022-12-18T15:36:38;-5.60;99.90
30381;DHT22;17169;50.966;11.038;2022-12-18T15:39:41;-5.60;99.90
30381;DHT22;17169;50.966;11.038;2022-12-18T15:42:45;-5.60;99.90
30381;DHT22;17169;50.966;11.038;2022-12-18T15:46:09;-5.70;99.90
30381;DHT22;17169;50.966;11.038;2022-12-18T15:49:12;-5.70;99.90
30381;DHT22;17169;50.966;11.038;2022-12-18T15:52:15;-5.70;99.90
30381;DHT22;17169;50.966;11.038;2022-12-18T15:55:26;-5.70;99.90
30381;DHT22;17169;50.966;11.038;2022-12-18T15:58:48;-5.70;99.90
30381;DHT22;17169;50.966;11.038;2022-12-18T16:01:51;-5.70;99.90
30381;DHT22;17169;50.966;11.038;2022-12-18T16:04:54;-5.80;99.90
30381;DHT22;17169;50.966;11.038;2022-12-18T16:07:56;-5.80;99.90
30381;DHT22;17169;50.966;11.038;2022-12-18T16:11:00;-5.80;99.90
30381;DHT22;17169;50.966;11.038;2022-12-18T16:14:12;-5.80;99.90
30381;DHT22;17169;50.966;11.038;2022-12-18T16:17:16;-5.80;99.90
30381;DHT22;17169;50.966;11.038;2022-12-18T16:20:20;-5.80;99.90
30381;DHT22;17169;50.966;11.038;2022-12-18T16:23:22;-5.80;99.90
30381;DHT22;17169;50.966;11.038;2022-12-18T16:26:25;-5.80;99.90
30381;DHT22;17169;50.966;11.038;2022-12-18T16:29:29;-5.70;99.90
30381;DHT22;17169;50.966;11.038;2022-12-18T16:32:31;-5.70;99.90
30381;DHT22;17169;50.966;11.038;2022-12-18T16:35:34;-5.70;99.90
30381;DHT22;17169;50.966;11.038;2022-12-18T16:38:38;-5.70;99.90
30381;DHT22;17169;50.966;11.038;2022-12-18T16:41:40;-5.60;99.90
30381;DHT22;17169;50.966;11.038;2022-12-18T16:44:45;-5.60;99.90
30381;DHT22;17169;50.966;11.038;2022-12-18T16:47:47;-5.60;99.90
30381;DHT22;17169;50.966;11.038;2022-12-18T16:50:50;-5.60;99.90
30381;DHT22;17169;50.966;11.038;2022-12-18T16:54:01;-5.60;99.90
30381;DHT22;17169;50.966;11.038;2022-12-18T16:57:04;-5.60;99.90
30381;DHT22;17169;50.966;11.038;2022-12-18T17:00:09;-5.60;99.90
30381;DHT22;17169;50.966;11.038;2022-12-18T17:03:12;-5.50;99.90
30381;DHT22;17169;50.966;11.038;2022-12-18T17:06:14;-5.50;99.90
30381;DHT22;17169;50.966;11.038;2022-12-18T17:09:18;-5.50;99.90
30381;DHT22;17169;50.966;11.038;2022-12-18T17:12:22;-5.60;99.90
30381;DHT22;17169;50.966;11.038;2022-12-18T17:15:26;-5.50;99.90
30381;DHT22;17169;50.966;11.038;2022-12-18T17:18:28;-5.60;99.90
30381;DHT22;17169;50.966;11.038;2022-12-18T17:21:31;-5.50;99.90
30381;DHT22;17169;50.966;11.038;2022-12-18T17:24:33;-5.50;99.90
30381;DHT22;17169;50.966;11.038;2022-12-18T17:27:36;-5.50;99.90
30381;DHT22;17169;50.966;11.038;2022-12-18T17:30:39;-5.40;99.90
30381;DHT22;17169;50.966;11.038;2022-12-18T17:33:43;-5.50;99.90
30381;DHT22;17169;50.966;11.038;2022-12-18T17:36:45;-5.50;99.90
30381;DHT22;17169;50.966;11.038;2022-12-18T17:39:48;-5.40;99.90
30381;DHT22;17169;50.966;11.038;2022-12-18T17:42:51;-5.40;99.90
30381;DHT22;17169;50.966;11.038;2022-12-18T17:45:55;-5.50;99.90
30381;DHT22;17169;50.966;11.038;2022-12-18T17:48:58;-5.40;99.90
30381;DHT22;17169;50.966;11.038;2022-12-18T17:52:01;-5.40;99.90
30381;DHT22;17169;50.966;11.038;2022-12-18T17:55:04;-5.40;99.90
30381;DHT22;17169;50.966;11.038;2022-12-18T17:58:07;-5.40;99.90
30381;DHT22;17169;50.966;11.038;2022-12-18T18:01:13;-5.40;99.90
30381;DHT22;17169;50.966;11.038;2022-12-18T18:04:15;-5.40;99.90
30381;DHT22;17169;50.966;11.038;2022-12-18T18:07:18;-5.50;99.90
30381;DHT22;17169;50.966;11.038;2022-12-18T18:10:20;-5.40;99.90
30381;DHT22;17169;50.966;11.038;2022-12-18T18:13:24;-5.40;99.90
30381;DHT22;17169;50.966;11.038;2022-12-18T18:16:49;-5.40;99.90
30381;DHT22;17169;50.966;11.038;2022-12-18T18:19:52;-5.30;99.90
30381;DHT22;17169;50.966;11.038;2022-12-18T18:22:54;-5.30;99.90
30381;DHT22;17169;50.966;11.038;2022-12-18T18:26:02;-5.30;99.90
30381;DHT22;17169;50.966;11.038;2022-12-18T18:29:05;-5.40;99.90
30381;DHT22;17169;50.966;11.038;2022-12-18T18:32:12;-5.30;99.90
30381;DHT22;17169;50.966;11.038;2022-12-18T18:35:15;-5.30;99.90
30381;DHT22;17169;50.966;11.038;2022-12-18T18:38:17;-5.30;99.90
30381;DHT22;17169;50.966;11.038;2022-12-18T18:41:20;-5.20;99.90
30381;DHT22;17169;50.966;11.038;2022-12-18T18:44:24;-5.20;99.90
30381;DHT22;17169;50.966;11.038;2022-12-18T18:47:29;-5.20;99.90
30381;DHT22;17169;50.966;11.038;2022-12-18T18:50:31;-5.20;99.90
30381;DHT22;17169;50.966;11.038;2022-12-18T18:53:35;-5.10;99.90
30381;DHT22;17169;50.966;11.038;2022-12-18T18:56:38;-5.10;99.90
30381;DHT22;17169;50.966;11.038;2022-12-18T18:59:40;-5.10;99.90
30381;DHT22;17169;50.966;11.038;2022-12-18T19:02:44;-5.00;99.90
30381;DHT22;17169;50.966;11.038;2022-12-18T19:05:50;-5.00;99.90
30381;DHT22;17169;50.966;11.038;2022-12-18T19:08:53;-5.00;99.90
30381;DHT22;17169;50.966;11.038;2022-12-18T19:11:56;-5.00;99.90
30381;DHT22;17169;50.966;11.038;2022-12-18T19:15:16;-5.00;99.90
30381;DHT22;17169;50.966;11.038;2022-12-18T19:18:20;-4.90;99.90
30381;DHT22;17169;50.966;11.038;2022-12-18T19:21:23;-4.90;99.90
30381;DHT22;17169;50.966;11.038;2022-12-18T19:24:25;-4.80;99.90